This is the latest recevied weather packets stored in our database for station/object AJ1L. If no packets are shown the sender has not sent any weather packets the latest 10 day(s).
| Time | Temp. | Humidity | Pressure | Rain* | Wind** | Luminosity | Snow |
|---|---|---|---|---|---|---|---|
| 1777294634 | 12.78° C | 56% | 1024.1 hPa | 0 mm | - | - | - |
| 1777293635 | 11.67° C | 58% | 1024.1 hPa | 0 mm | - | - | - |
| 1777292635 | 11.11° C | 63% | 1024.1 hPa | 0 mm | - | - | - |
| 1777291635 | 10° C | 66% | 1024 hPa | 0 mm | - | - | - |
| 1777290635 | 9.44° C | 67% | 1023.9 hPa | 0 mm | - | - | - |
| 1777289634 | 8.89° C | 70% | 1023.7 hPa | 0 mm | - | - | - |
| 1777288634 | 7.78° C | 74% | 1023.5 hPa | 0 mm | - | - | - |
| 1777287635 | 6.67° C | 79% | 1023.5 hPa | 0 mm | - | - | - |
| 1777286634 | 6.11° C | 82% | 1023.3 hPa | 0 mm | - | - | - |
| 1777285634 | 5° C | 83% | 1023.2 hPa | 0 mm | - | - | - |
| 1777284636 | 5° C | 82% | 1023.1 hPa | 0 mm | - | - | - |
| 1777283634 | 4.44° C | 82% | 1023 hPa | 0 mm | - | - | - |
| 1777282634 | 3.89° C | 82% | 1022.7 hPa | 0 mm | - | - | - |
| 1777281635 | 4.44° C | 78% | 1022.5 hPa | 0 mm | - | - | - |
| 1777280634 | 4.44° C | 80% | 1022.2 hPa | 0 mm | - | - | - |
| 1777279634 | 4.44° C | 78% | 1022.2 hPa | 0 mm | - | - | - |
| 1777278634 | 4.44° C | 77% | 1022.1 hPa | 0 mm | - | - | - |
| 1777277634 | 4.44° C | 77% | 1021.9 hPa | 0 mm | - | - | - |
| 1777276634 | 4.44° C | 77% | 1021.8 hPa | 0 mm | - | - | - |
| 1777275634 | 4.44° C | 76% | 1021.8 hPa | 0 mm | - | - | - |
| 1777274634 | 4.44° C | 77% | 1021.5 hPa | 0 mm | - | - | - |
| 1777273634 | 4.44° C | 75% | 1021.4 hPa | 0 mm | - | - | - |
| 1777272637 | 5.56° C | 73% | 1021.5 hPa | 0 mm | - | - | - |
| 1777271634 | 6.67° C | 70% | 1021.4 hPa | 0 mm | - | - | - |
| 1777270634 | 6.11° C | 72% | 1021.3 hPa | 0 mm | - | - | - |
* Rain latest hour (hover to see other rain measurements)
** Current wind speed in m/s (hover to see current wind gust speed)